Latest Coastal Weather Observations for Broome Port

IDW60701

Issued at 5:33 am WST Thursday 25 August 2016 (issued every 10 minutes, with the page automatically refreshed every 10 minutes)

About coastal observations | Map of coastal stations | Coastal observations for WA | Marine services | Other Formats
Station Details ID: 003102 Name: BROOME NTC AWS Lat: -18.00 Lon: 122.22 Height: 0.0 m
Data from the previous 72 hours. | See also: Recent months for locations in Western Australia
Date/Time
WST
Temp
°C
Wind Pressure Rain since
9am
mm
Weather Cloud Vis
km
Sea
Height
m
Swell
Dir  Spd
kts
Gust
kts
hPa Trend Height
m
Period
s
Dir
25/05:30am 18.8 ESE 15 19 1012.6 - - - - - - - - -
25/05:00am 20.1 SE 20 27 1012.2 - - - - - - - - -
25/04:30am 20.5 SE 23 27 1011.9 - - - - - - - - -
25/04:00am 20.9 SE 24 29 1011.6 - - - - - - - - -
25/03:30am 21.0 SE 24 29 1011.4 - - - - - - - - -
25/03:00am 21.1 SE 22 26 1011.3 - - - - - - - - -
25/02:30am 20.8 SE 21 24 1011.3 - - - - - - - - -
25/02:00am 20.6 SE 19 21 1011.5 - - - - - - - - -
25/01:30am 20.9 SE 16 19 1011.7 - - - - - - - - -
25/01:00am 21.5 SSE 17 20 1011.6 - - - - - - - - -
25/12:30am 22.2 SSE 14 17 1011.8 - - - - - - - - -
25/12:00am 21.8 SSE 12 16 1012.0 - - - - - - - - -
 
Date/Time
WST
Temp
°C
Wind Pressure Rain since
9am
mm
Weather Cloud Vis
km
Sea
Height
m
Swell
Dir  Spd
kts
Gust
kts
hPa Trend Height
m
Period
s
Dir
24/11:30pm 22.5 SSE 9 13 1012.1 - - - - - - - - -
24/11:00pm 23.0 S 7 11 1012.3 - - - - - - - - -
24/10:30pm 22.1 SW 8 10 1012.4 - - - - - - - - -
24/10:00pm 21.8 SW 7 9 1012.4 - - - - - - - - -
24/09:30pm 22.7 SW 9 13 1012.3 - - - - - - - - -
24/09:00pm 23.0 SW 12 14 1012.1 - - - - - - - - -
24/08:30pm 23.1 WSW 13 15 1012.2 - - - - - - - - -
24/08:00pm 23.2 WSW 12 15 1012.0 - - - - - - - - -
24/07:30pm 23.3 WSW 13 16 1011.6 - - - - - - - - -
24/07:00pm 23.4 WSW 15 17 1011.2 - - - - - - - - -
24/06:30pm 23.5 WSW 14 16 1010.8 - - - - - - - - -
24/06:00pm 23.7 WSW 14 18 1010.5 - - - - - - - - -
24/05:30pm 23.9 WSW 14 17 1010.2 - - - - - - - - -
24/05:00pm 24.2 WSW 13 14 1010.1 - - - - - - - - -
24/04:30pm 24.4 WSW 13 15 1010.0 - - - - - - - - -
24/04:00pm 24.8 WSW 12 14 1009.8 - - - - - - - - -
24/03:30pm 25.8 W 7 9 1009.6 - - - - - - - - -
24/03:00pm 26.8 WSW 3 4 1009.6 - - - - - - - - -
24/02:30pm 26.6 WSW 2 3 1009.7 - - - - - - - - -
24/02:00pm 26.1 SW 2 3 1010.0 - - - - - - - - -
24/01:30pm 25.3 SW 3 5 1010.5 - - - - - - - - -
24/01:00pm 25.2 SSW 3 4 1011.1 - - - - - - - - -
24/12:30pm 24.5 S 6 6 1011.7 - - - - - - - - -
24/12:00pm 24.5 SSE 7 8 1012.1 - - - - - - - - -
24/11:30am 24.2 SE 10 12 1012.6 - - - - - - - - -
24/11:00am 24.0 ESE 12 16 1013.0 - - - - - - - - -
24/10:30am 23.8 ESE 14 18 1013.3 - - - - - - - - -
24/10:00am 23.4 ESE 17 21 1013.7 - - - - - - - - -
24/09:30am 20.7 ESE 8 11 1014.0 - - - - - - - - -
24/09:00am 18.9 ESE 11 14 1014.3 - - - - - - - - -
24/08:30am 18.0 ESE 13 16 1014.3 - - - - - - - - -
24/08:00am 17.3 ESE 14 17 1014.1 - - - - - - - - -
24/07:30am 17.1 ESE 16 20 1013.8 - - - - - - - - -
24/07:00am 17.2 SE 20 24 1013.5 - - - - - - - - -
24/06:30am 17.5 SE 16 21 1013.1 - - - - - - - - -
24/06:00am 18.0 SE 18 21 1012.7 - - - - - - - - -
24/05:30am 18.3 SE 20 23 1012.3 - - - - - - - - -
24/05:00am 18.8 SE 19 23 1012.0 - - - - - - - - -
24/04:30am 18.9 SE 21 24 1011.5 - - - - - - - - -
24/04:00am 19.3 SSE 23 27 1011.0 - - - - - - - - -
24/03:30am 19.5 SSE 22 26 1010.8 - - - - - - - - -
24/03:00am 19.9 SSE 23 27 1010.7 - - - - - - - - -
24/02:30am 20.3 SSE 22 26 1010.7 - - - - - - - - -
24/02:00am 20.4 SSE 21 25 1010.7 - - - - - - - - -
24/01:30am 20.6 SSE 20 24 1010.9 - - - - - - - - -
24/01:00am 21.1 SSE 20 23 1010.7 - - - - - - - - -
24/12:30am 21.4 SSE 20 23 1010.8 - - - - - - - - -
24/12:00am 21.3 S 20 23 1010.9 - - - - - - - - -
 
Date/Time
WST
Temp
°C
Wind Pressure Rain since
9am
mm
Weather Cloud Vis
km
Sea
Height
m
Swell
Dir  Spd
kts
Gust
kts
hPa Trend Height
m
Period
s
Dir
23/11:30pm 21.8 S 19 23 1011.0 - - - - - - - - -
23/11:00pm 21.7 S 16 20 1011.0 - - - - - - - - -
23/10:30pm 21.8 SSW 11 16 1011.1 - - - - - - - - -
23/10:00pm 21.9 SW 13 17 1011.0 - - - - - - - - -
23/09:30pm 22.1 SW 17 19 1011.0 - - - - - - - - -
23/09:00pm 22.2 SW 16 20 1011.0 - - - - - - - - -
23/08:30pm 22.4 SW 15 19 1010.9 - - - - - - - - -
23/08:00pm 22.6 SW 16 19 1010.6 - - - - - - - - -
23/07:30pm 22.6 WSW 14 17 1010.4 - - - - - - - - -
23/07:00pm 22.9 WSW 15 17 1010.1 - - - - - - - - -
23/06:30pm 23.1 WSW 14 16 1009.7 - - - - - - - - -
23/06:00pm 23.1 WSW 10 13 1009.6 - - - - - - - - -
23/05:30pm 23.3 W 9 11 1009.4 - - - - - - - - -
23/05:00pm 23.5 W 11 13 1009.4 - - - - - - - - -
23/04:30pm 23.8 W 11 13 1009.3 - - - - - - - - -
23/04:00pm 23.5 W 10 13 1009.2 - - - - - - - - -
23/03:30pm 23.3 W 10 12 1009.0 - - - - - - - - -
23/03:00pm 23.6 W 8 10 1009.1 - - - - - - - - -
23/02:30pm 23.4 W 7 10 1009.0 - - - - - - - - -
23/02:00pm 23.2 WSW 8 10 1009.3 - - - - - - - - -
23/01:30pm 22.8 WSW 8 10 - - - - - - - - - -
23/01:00pm 22.9 SW 6 8 - - - - - - - - - -
23/12:30pm 23.4 SSW 3 5 - - - - - - - - - -
23/12:00pm 22.5 S 7 8 - - - - - - - - - -
23/11:30am 22.1 SSE 7 9 - - - - - - - - - -
23/11:00am 21.7 SSE 8 11 1011.7 - - - - - - - - -
23/10:30am 21.2 SSE 11 14 1012.4 - - - - - - - - -
23/10:00am 20.8 SE 14 17 1012.6 - - - - - - - - -
23/09:30am 20.3 SSE 16 19 1012.6 - - - - - - - - -
23/09:00am 19.7 SE 18 22 1012.6 - - - - - - - - -
23/08:30am 19.4 SSE 20 23 1012.5 - - - - - - - - -
23/08:00am 18.8 SSE 23 29 1012.2 - - - - - - - - -
23/07:30am 18.4 SSE 25 31 1011.9 - - - - - - - - -
23/07:00am 18.7 SSE 28 33 1011.4 - - - - - - - - -
23/06:30am 18.9 SSE 26 32 1010.9 - - - - - - - - -
23/06:00am 19.4 SSE 23 27 1010.8 - - - - - - - - -
23/05:30am 19.6 S 21 25 1010.5 - - - - - - - - -
23/05:00am 20.3 S 22 28 1010.0 - - - - - - - - -
23/04:30am 20.6 S 22 27 1009.9 - - - - - - - - -
23/04:00am 20.8 S 18 23 1009.8 - - - - - - - - -
23/03:30am 21.3 SSW 20 26 1009.5 - - - - - - - - -
23/03:00am 22.2 SSW 24 28 1009.1 - - - - - - - - -
23/02:30am 22.3 SSW 21 26 1008.9 - - - - - - - - -
23/02:00am 22.9 SW 18 25 1008.9 - - - - - - - - -
23/01:30am 23.1 SW 12 17 1009.0 - - - - - - - - -
23/01:00am 23.3 SW 9 13 1009.0 - - - - - - - - -
23/12:30am 24.1 SW 15 17 1009.0 - - - - - - - - -
23/12:00am 24.0 WSW 14 18 1009.2 - - - - - - - - -
 
Date/Time
WST
Temp
°C
Wind Pressure Rain since
9am
mm
Weather Cloud Vis
km
Sea
Height
m
Swell
Dir  Spd
kts
Gust
kts
hPa Trend Height
m
Period
s
Dir
22/11:30pm 23.9 WSW 11 13 1009.5 - - - - - - - - -
22/11:00pm 23.9 W 10 14 1009.6 - - - - - - - - -
22/10:30pm 24.0 W 8 13 1009.6 - - - - - - - - -
22/10:00pm 23.9 WNW 7 10 1009.7 - - - - - - - - -
22/09:30pm 23.7 WNW 6 8 1009.7 - - - - - - - - -
22/09:00pm 23.8 W 7 11 1009.9 - - - - - - - - -
22/08:30pm 23.8 W 7 10 1009.9 - - - - - - - - -
22/08:00pm 23.9 WSW 8 10 1009.8 - - - - - - - - -
22/07:30pm 24.0 WSW 10 11 1009.4 - - - - - - - - -
22/07:00pm 23.8 WSW 9 11 1009.1 - - - - - - - - -
22/06:30pm 23.7 WSW 9 12 1008.8 - - - - - - - - -
22/06:00pm 23.6 SW 5 6 1008.6 - - - - - - - - -
22/05:30pm 23.9 WSW 7 9 1008.3 - - - - - - - - -
22/05:00pm 24.1 W 11 14 1007.9 - - - - - - - - -
22/04:30pm 24.2 W 12 15 1007.7 - - - - - - - - -
22/04:00pm 24.3 W 13 17 1007.7 - - - - - - - - -
22/03:30pm 24.1 WSW 12 14 1007.6 - - - - - - - - -
22/03:00pm 24.1 WSW 13 16 1007.7 - - - - - - - - -
22/02:30pm 24.3 WSW 14 17 1007.9 - - - - - - - - -
22/02:00pm 24.2 WSW 15 18 1008.2 - - - - - - - - -
22/01:30pm 24.0 WSW 14 16 1008.5 - - - - - - - - -
22/01:00pm 24.0 WSW 13 15 1008.8 - - - - - - - - -
22/12:30pm 24.2 WSW 14 16 1009.2 - - - - - - - - -
22/12:00pm 24.5 WSW 9 10 1009.6 - - - - - - - - -
22/11:30am 24.6 WSW 8 10 1010.0 - - - - - - - - -
22/11:00am 24.6 WSW 6 10 1010.5 - - - - - - - - -
22/10:30am 24.6 SW 5 7 1010.8 - - - - - - - - -
22/10:00am 24.2 SW 1 3 1011.1 - - - - - - - - -
22/09:30am 22.7 ESE 2 3 1011.2 - - - - - - - - -
22/09:00am 22.3 ESE 4 5 1011.2 - - - - - - - - -
22/08:30am 22.3 SE 4 6 1010.9 - - - - - - - - -
22/08:00am 21.8 SE 4 5 1010.8 - - - - - - - - -
22/07:30am 22.0 SE 4 6 1010.6 - - - - - - - - -
22/07:00am 22.0 ESE 3 4 1010.2 - - - - - - - - -
22/06:30am 22.5 SE 5 7 1009.9 - - - - - - - - -
22/06:00am 22.2 SE 5 6 1009.7 - - - - - - - - -

Other Formats:

Comma delimited format used in spreadsheet applications
http://www.bom.gov.au/fwo/IDW60701/IDW60701.95202.axf

JavaScript Object Notation format (JSON) in row-major order
http://www.bom.gov.au/fwo/IDW60701/IDW60701.95202.json